Time;durP1;ratioP1;P1;durP2;ratioP2;P2;SDS_P1;SDS_P2;PMS_P1;PMS_P2;Temp;Humidity;BMP_temperature;BMP_pressure;BME280_temperature;BME280_humidity;BME280_pressure;Samples;Min_cycle;Max_cycle;Signal;HPM_P1;HPM_P2
2022/07/13 06:28:57;;;;;;;;;4.33;3.00;;;;;28.26;59.62;101776.97;6260819;22;45071;-96
2022/07/13 06:31:22;;;;;;;;;3.00;3.00;;;;;28.29;59.45;101777.84;6250144;22;45874;-89
2022/07/13 06:33:51;;;;;;;;;3.00;2.00;;;;;28.20;59.68;101749.16;6247355;22;45223;-90
2022/07/13 06:36:16;;;;;;;;;3.00;3.00;;;;;28.25;59.81;101750.88;6250192;22;45591;-89
2022/07/13 06:38:42;;;;;;;;;4.00;4.00;;;;;28.28;59.44;101749.06;6277321;22;48015;-93
2022/07/13 06:41:07;;;;;;;;;3.33;3.00;;;;;28.41;59.66;101765.06;6280362;22;47048;-93
2022/07/13 06:43:32;;;;;;;;;3.00;2.67;;;;;28.36;60.48;101751.66;6230899;22;45306;-95
2022/07/13 06:46:00;;;;;;;;;3.00;3.00;;;;;28.38;60.87;101748.91;6277936;22;45426;-94
2022/07/13 06:48:27;;;;;;;;;3.00;2.00;;;;;28.45;60.85;101758.78;6257525;22;47124;-93
2022/07/13 06:50:52;;;;;;;;;3.00;3.00;;;;;28.44;60.43;101765.97;6279729;22;45325;-93
2022/07/13 06:53:20;;;;;;;;;3.00;3.00;;;;;28.46;60.87;101747.03;6229753;22;45479;-91
2022/07/13 06:55:45;;;;;;;;;5.67;5.00;;;;;28.49;60.71;101751.50;6204255;22;45594;-92
2022/07/13 06:58:11;;;;;;;;;9.00;5.00;;;;;28.50;60.91;101745.19;6252139;22;46063;-92
2022/07/13 07:00:36;;;;;;;;;4.00;4.00;;;;;28.55;61.19;101759.53;6227439;22;45202;-93
2022/07/13 07:18:45;;;;;;;;;;;;;;;;;;;;;
2022/07/13 07:21:52;;;;;;;;;6.00;5.00;;;;;29.03;56.66;101775.91;6254821;22;74603;-96
2022/07/13 07:27:09;;;;;;;;;;;;;;;;;;;;;
2022/07/13 07:29:53;;;;;;;;;8.33;6.00;;;;;29.37;57.06;101806.91;6317992;22;69490;-92
2022/07/13 09:09:04;;;;;;;;;4.00;3.33;;;;;32.18;50.05;101777.03;6312441;22;45934;-96
2022/07/13 09:14:34;;;;;;;;;5.00;2.00;;;;;32.37;49.76;101775.59;6314833;22;67863;-94
2022/07/13 09:17:00;;;;;;;;;5.00;4.00;;;;;32.47;49.51;101774.38;6162763;23;45610;-94
2022/07/13 09:19:33;;;;;;;;;2.00;2.00;;;;;32.55;49.10;101776.81;6165758;23;47041;-94
2022/07/13 09:22:13;;;;;;;;;3.00;3.00;;;;;32.59;49.58;101766.75;6169858;23;45469;-94
2022/07/13 09:37:45;;;;;;;;;5.00;3.67;;;;;33.19;47.05;101774.75;6312329;22;45786;-96
2022/07/13 09:40:40;;;;;;;;;1.00;1.00;;;;;33.29;47.41;101782.66;6317047;22;45439;-95
2022/07/13 09:46:13;;;;;;;;;2.33;2.33;;;;;33.46;45.68;101776.59;6279006;22;44745;-95
2022/07/13 09:48:49;;;;;;;;;1.33;1.33;;;;;33.58;46.37;101764.38;6283149;22;45439;-96
2022/07/13 09:51:27;;;;;;;;;2.00;2.00;;;;;33.71;45.61;101774.81;6260662;22;45551;-95
2022/07/13 09:53:59;;;;;;;;;2.00;2.00;;;;;33.81;46.14;101759.06;6286952;22;46573;-96
2022/07/13 09:56:28;;;;;;;;;3.00;3.00;;;;;34.06;45.81;101769.00;6261981;22;45470;-96
2022/07/13 09:58:54;;;;;;;;;1.33;1.00;;;;;34.38;45.37;101774.19;6260869;22;45434;-96
2022/07/13 10:01:23;;;;;;;;;2.00;2.00;;;;;34.91;45.39;101779.34;6259608;22;45286;-96
2022/07/13 10:03:49;;;;;;;;;5.00;3.00;;;;;35.49;44.95;101763.28;6282685;22;46441;-94
2022/07/13 10:06:15;;;;;;;;;3.00;3.00;;;;;36.19;44.77;101770.09;6281247;22;45573;-92
2022/07/13 10:08:47;;;;;;;;;2.00;2.00;;;;;36.95;44.04;101768.28;6286551;22;45305;-95
2022/07/13 10:11:13;;;;;;;;;3.33;2.00;;;;;37.89;43.63;101768.88;6233867;22;45888;-91
2022/07/13 10:13:39;;;;;;;;;1.67;1.67;;;;;38.76;43.44;101766.78;6280558;22;45515;-92
2022/07/13 10:16:04;;;;;;;;;1.33;1.33;;;;;39.71;43.08;101784.00;6258335;22;45519;-92
2022/07/13 10:18:36;;;;;;;;;17.00;17.00;;;;;40.96;42.76;101770.41;6262174;22;45460;-90
2022/07/13 10:21:29;;;;;;;;;6.67;6.67;;;;;42.87;41.90;101775.09;6317988;22;45583;-90
2022/07/13 10:23:54;;;;;;;;;4.33;4.33;;;;;44.13;41.07;101769.88;6315176;22;46331;-92
2022/07/13 10:26:24;;;;;;;;;4.00;4.00;;;;;45.69;37.73;101776.97;6317802;22;45166;-91
2022/07/13 10:36:55;;;;;;;;;3.00;3.00;;;;;49.23;35.69;101769.72;6230836;22;45688;-94
2022/07/13 10:39:44;;;;;;;;;;;;;;;;;;;;;
2022/07/13 10:46:43;;;;;;;;;4.67;3.00;;;;;53.23;31.74;101786.97;6078417;23;45436;-96
2022/07/13 10:49:53;;;;;;;;;2.67;2.67;;;;;54.31;30.62;101784.66;6015598;23;46633;-96
2022/07/13 11:03:43;;;;;;;;;3.00;3.00;;;;;59.90;26.98;101778.81;5916500;24;45060;-93
2022/07/13 11:07:29;;;;;;;;;;;;;;;;;;;;;
2022/07/13 11:10:20;;;;;;;;;3.67;3.67;;;;;61.79;25.63;101790.53;5792630;24;69225;-96
2022/07/13 11:25:55;;;;;;;;;2.00;2.00;;;;;64.37;23.68;101757.78;6227092;22;45402;-93
2022/07/13 11:28:51;;;;;;;;;3.75;3.75;;;;;65.03;21.71;101772.69;6222322;22;47027;-94
2022/07/13 11:31:18;;;;;;;;;5.25;5.25;;;;;65.30;22.05;101771.66;6218645;22;45263;-93
2022/07/13 11:34:11;;;;;;;;;4.25;4.00;;;;;65.57;22.36;101764.03;6212936;22;45746;-94
2022/07/13 11:36:59;;;;;;;;;4.50;4.50;;;;;65.99;22.19;101758.34;6221579;22;45329;-96
2022/07/13 11:39:31;;;;;;;;;6.50;4.25;;;;;66.38;22.15;101756.88;6221142;22;45784;-94
2022/07/13 11:41:59;;;;;;;;;3.75;3.75;;;;;66.66;21.27;101750.78;6183309;22;45593;-94
2022/07/13 11:44:31;;;;;;;;;2.00;2.00;;;;;67.07;21.45;101757.50;6211808;22;45353;-95
2022/07/13 11:47:03;;;;;;;;;4.00;4.00;;;;;67.60;20.80;101743.72;6221488;22;45479;-93
2022/07/13 11:49:28;;;;;;;;;3.25;3.00;;;;;68.08;18.99;101750.72;6187459;22;47086;-94
2022/07/13 11:52:25;;;;;;;;;3.00;3.00;;;;;68.28;19.89;101755.41;6225295;22;44774;-96
2022/07/13 12:01:16;;;;;;;;;4.25;4.25;;;;;68.12;19.71;101730.97;6343502;22;45467;-95
2022/07/13 12:03:57;;;;;;;;;2.50;2.50;;;;;68.28;20.04;101726.75;6347957;22;45277;-96
2022/07/13 12:06:28;;;;;;;;;4.00;4.00;;;;;68.52;19.57;101733.66;6312769;22;45276;-95
2022/07/13 12:08:56;;;;;;;;;3.00;3.00;;;;;68.41;18.93;101735.78;6350614;22;45428;-95
2022/07/13 12:11:32;;;;;;;;;2.50;1.50;;;;;68.26;17.72;101728.22;6353273;22;45874;-95
2022/07/13 12:14:08;;;;;;;;;4.00;4.00;;;;;68.12;19.37;101711.78;6285072;22;45376;-94
2022/07/13 12:16:53;;;;;;;;;2.75;2.75;;;;;68.19;18.64;101728.59;6287914;22;45368;-96
2022/07/13 12:19:19;;;;;;;;;2.00;2.00;;;;;68.12;18.84;101726.09;6287456;22;45428;-95
2022/07/13 12:22:19;;;;;;;;;2.00;2.00;;;;;68.12;18.83;101723.22;6289399;22;47000;-93
2022/07/13 12:24:49;;;;;;;;;2.00;2.00;;;;;68.18;18.96;101716.25;6260981;22;45730;-93
2022/07/13 12:27:31;;;;;;;;;2.00;2.00;;;;;68.40;18.74;101709.16;6259780;22;45157;-94
2022/07/13 12:30:31;;;;;;;;;3.00;3.00;;;;;68.80;18.46;101701.47;6281037;22;45359;-95
2022/07/13 12:33:29;;;;;;;;;4.00;4.00;;;;;69.11;18.62;101686.66;6275008;22;45384;-95
2022/07/13 12:41:25;;;;;;;;;;;;;;;;;;;;;
2022/07/13 12:47:51;;;;;;;;;;;;;;;;;;;;;
2022/07/13 12:50:35;;;;;;;;;3.75;2.75;;;;;71.18;18.06;101699.25;6007090;23;45251;-95
2022/07/13 13:02:10;;;;;;;;;;;;;;;;;;;;;
2022/07/13 13:05:13;;;;;;;;;;;;;;;;;;;;;
2022/07/13 13:08:11;;;;;;;;;;;;;;;;;;;;;
2022/07/13 13:11:22;;;;;;;;;2.75;2.75;;;;;71.75;17.24;101654.88;6158865;23;75225;-96
2022/07/13 13:14:42;;;;;;;;;2.00;2.00;;;;;72.00;17.78;101679.22;6072344;23;45409;-96
2022/07/13 13:18:11;;;;;;;;;;;;;;;;;;;;;
2022/07/13 13:20:46;;;;;;;;;0.00;0.00;;;;;71.84;17.36;101639.34;5899826;24;69900;-95
2022/07/13 13:23:11;;;;;;;;;0.00;0.00;;;;;72.21;17.34;101660.47;5907967;24;47158;-95
2022/07/13 13:26:03;;;;;;;;;3.75;3.75;;;;;72.28;16.85;101658.81;5906188;24;45398;-93
2022/07/13 13:31:29;;;;;;;;;3.00;3.00;;;;;72.05;17.02;101649.41;5907627;24;45218;-94
2022/07/13 13:34:20;;;;;;;;;3.75;2.00;;;;;72.00;17.46;101643.78;5880086;24;47053;-94
2022/07/13 13:36:46;;;;;;;;;3.25;3.25;;;;;72.11;17.06;101670.28;5880704;24;45416;-93
2022/07/13 13:39:11;;;;;;;;;3.00;3.00;;;;;71.98;16.98;101646.16;5905707;24;45470;-93
2022/07/13 13:41:37;;;;;;;;;3.00;3.00;;;;;72.01;16.85;101642.59;5902502;24;45402;-94
2022/07/13 13:44:22;;;;;;;;;2.00;2.00;;;;;72.19;17.08;101642.66;5928997;23;46626;-93
2022/07/13 13:46:57;;;;;;;;;1.00;1.00;;;;;72.46;16.75;101635.75;5988975;23;44820;-95
2022/07/13 13:49:22;;;;;;;;;3.75;3.75;;;;;72.56;16.49;101625.94;6002253;23;45390;-94
2022/07/13 13:51:48;;;;;;;;;3.00;3.00;;;;;72.58;15.83;101635.13;6215795;22;45215;-93
2022/07/13 13:54:35;;;;;;;;;3.50;3.50;;;;;72.39;16.78;101618.13;6323253;22;46114;-94
2022/07/13 13:57:07;;;;;;;;;2.00;2.00;;;;;72.34;17.16;101616.25;6292087;22;45146;-95
2022/07/13 13:59:47;;;;;;;;;4.00;3.00;;;;;72.19;16.72;101608.94;6291017;22;45175;-95
2022/07/13 14:02:12;;;;;;;;;3.25;3.00;;;;;72.30;16.81;101625.94;6320916;22;45280;-93
2022/07/13 14:04:47;;;;;;;;;2.50;2.50;;;;;72.49;16.26;101609.13;6318646;22;45617;-94
2022/07/13 14:07:16;;;;;;;;;3.00;3.00;;;;;72.71;16.35;101594.91;6319647;22;45355;-93
2022/07/13 14:09:42;;;;;;;;;3.00;2.25;;;;;72.90;16.85;101606.06;6290865;22;45882;-95
2022/07/13 14:12:07;;;;;;;;;4.00;4.00;;;;;72.77;16.20;101605.06;6295860;22;45254;-93
2022/07/13 14:23:29;;;;;;;;;3.00;3.00;;;;;73.29;16.21;101604.44;6226486;22;45136;-96
2022/07/13 14:26:12;;;;;;;;;3.00;3.00;;;;;73.08;15.87;101582.13;6201346;22;47473;-95
2022/07/13 14:29:00;;;;;;;;;22.75;22.00;;;;;72.96;15.76;101575.00;6225833;22;45314;-95
2022/07/13 14:31:55;;;;;;;;;;;;;;;;;;;;;
2022/07/13 14:34:31;;;;;;;;;4.50;4.50;;;;;72.70;15.75;101575.88;6220529;22;71070;-96
2022/07/13 14:37:11;;;;;;;;;;;;;;;;;;;;;
2022/07/13 14:40:00;;;;;;;;;4.25;4.25;;;;;72.68;15.84;101584.03;6218297;22;71318;-95
2022/07/13 14:43:10;;;;;;;;;;;;;;;;;;;;;
2022/07/13 14:46:00;;;;;;;;;4.25;4.00;;;;;72.37;16.19;101572.34;6221438;22;70331;-96
2022/07/13 14:52:30;;;;;;;;;;;;;;;;;;;;;
2022/07/13 14:54:45;;;;;;;;;4.50;4.50;;;;;67.76;16.70;101553.41;6218773;22;45435;-94
2022/07/13 14:57:10;;;;;;;;;3.00;3.00;;;;;65.03;17.46;101549.34;6196748;22;45873;-95
2022/07/13 15:03:25;;;;;;;;;3.25;3.25;;;;;59.28;19.56;101521.34;6226117;22;44718;-96
2022/07/13 15:13:05;;;;;;;;;2.50;2.50;;;;;52.89;23.20;101493.09;6316754;22;45436;-96
2022/07/13 15:19:29;;;;;;;;;3.00;3.00;;;;;50.05;24.14;101508.06;6020611;23;45140;-96
2022/07/13 15:44:05;;;;;;;;;5.00;5.00;;;;;43.74;28.85;101451.47;6295398;22;46753;-93
2022/07/13 15:56:16;;;;;;;;;3.00;3.00;;;;;42.21;30.61;101434.50;6316425;22;46498;-96
2022/07/13 15:59:04;;;;;;;;;4.67;4.67;;;;;41.89;30.21;101447.03;6076848;23;47132;-95
2022/07/13 16:02:05;;;;;;;;;4.00;4.00;;;;;41.69;30.46;101452.25;6055708;23;45550;-96
2022/07/13 16:08:45;;;;;;;;;;;;;;;;;;;;;
2022/07/13 16:15:04;;;;;;;;;3.00;3.00;;;;;40.87;31.92;101430.72;5935459;24;44894;-96
2022/07/13 16:17:29;;;;;;;;;5.00;3.67;;;;;40.76;31.73;101437.03;5917853;24;45226;-93
2022/07/13 16:22:36;;;;;;;;;3.67;3.67;;;;;40.39;33.51;101442.41;6308666;22;47265;-96
2022/07/13 16:27:39;;;;;;;;;4.00;4.00;;;;;39.93;33.94;101414.44;6282367;22;45507;-92
2022/07/13 16:30:31;;;;;;;;;3.33;3.33;;;;;39.74;34.60;101424.81;6352778;22;45250;-90
2022/07/13 16:43:50;;;;;;;;;4.33;4.33;;;;;38.92;35.50;101418.31;6279626;22;45550;-96
2022/07/13 16:46:34;;;;;;;;;5.67;5.67;;;;;38.69;36.07;101406.97;6296582;22;45345;-96
2022/07/13 16:49:02;;;;;;;;;4.67;4.67;;;;;38.60;35.66;101415.81;6299028;22;45180;-96
2022/07/13 16:51:32;;;;;;;;;9.67;9.67;;;;;38.46;36.22;101409.34;6323667;22;45462;-96
2022/07/13 16:54:00;;;;;;;;;7.67;6.33;;;;;38.48;36.00;101412.00;6293009;22;47133;-96
2022/07/13 16:56:42;;;;;;;;;8.00;7.00;;;;;38.43;36.43;101398.56;6290949;22;45318;-96
2022/07/13 16:59:44;;;;;;;;;5.00;5.00;;;;;38.34;35.63;101391.78;6293659;22;45477;-96
2022/07/13 17:02:36;;;;;;;;;16.25;16.25;;;;;38.37;36.45;101398.97;6323610;22;45331;-96
2022/07/13 17:05:02;;;;;;;;;6.00;6.00;;;;;38.47;36.23;101422.09;6293901;22;47712;-95
2022/07/13 17:07:31;;;;;;;;;9.67;9.67;;;;;38.37;35.89;101401.72;6292352;22;45448;-96
2022/07/13 17:09:56;;;;;;;;;29.25;28.00;;;;;38.42;36.33;101411.41;6300603;22;45757;-94
2022/07/13 17:12:24;;;;;;;;;11.33;11.33;;;;;38.44;36.67;101422.25;6290789;22;55253;-93
2022/07/13 17:14:49;;;;;;;;;5.67;5.67;;;;;38.38;36.37;101425.38;6268302;22;47044;-96
2022/07/13 17:17:17;;;;;;;;;5.33;5.33;;;;;38.41;36.44;101425.19;6293655;22;44690;-95
2022/07/13 17:19:42;;;;;;;;;6.67;5.33;;;;;38.38;36.45;101428.13;6298313;22;44742;-96
2022/07/13 17:22:11;;;;;;;;;4.33;4.33;;;;;38.42;37.09;101426.97;6296240;22;44788;-96
2022/07/13 17:24:38;;;;;;;;;6.33;5.33;;;;;38.39;37.63;101427.16;6297384;22;53509;-96
2022/07/13 17:27:04;;;;;;;;;6.00;6.00;;;;;38.34;37.85;101422.84;6295127;22;44653;-96
2022/07/13 17:37:08;;;;;;;;;5.00;5.00;;;;;38.32;37.75;101430.25;6315984;22;44748;-94
2022/07/13 17:39:35;;;;;;;;;8.67;8.67;;;;;38.27;37.97;101434.28;6286908;22;44712;-94
2022/07/13 17:42:01;;;;;;;;;4.33;4.33;;;;;38.16;37.93;101424.88;6291874;22;45408;-96
2022/07/13 17:44:27;;;;;;;;;5.33;5.00;;;;;38.08;37.92;101430.81;6318064;22;47960;-93
2022/07/13 17:46:52;;;;;;;;;6.33;6.33;;;;;38.03;38.37;101435.69;6289689;22;45783;-94
2022/07/13 17:49:44;;;;;;;;;4.67;4.00;;;;;37.92;38.56;101432.72;6288419;22;45277;-96
2022/07/13 17:52:11;;;;;;;;;5.33;4.00;;;;;37.86;38.80;101443.03;6325615;22;44923;-96
2022/07/13 17:59:44;;;;;;;;;4.00;4.00;;;;;37.54;39.99;101426.72;6322537;22;44730;-94
2022/07/13 18:02:11;;;;;;;;;5.00;5.00;;;;;37.40;39.85;101433.88;6291035;22;45417;-95
2022/07/13 18:04:37;;;;;;;;;4.67;4.67;;;;;37.34;39.71;101436.97;6286125;22;46975;-92
2022/07/13 18:07:02;;;;;;;;;6.00;6.00;;;;;37.25;39.61;101442.94;6315474;22;48518;-92
2022/07/13 18:09:32;;;;;;;;;5.00;5.00;;;;;37.19;39.77;101438.75;6291045;22;45272;-90
2022/07/13 18:11:57;;;;;;;;;4.00;4.00;;;;;37.10;40.27;101437.41;6285514;22;45523;-92
2022/07/13 18:14:22;;;;;;;;;4.67;4.67;;;;;36.96;40.30;101421.75;6289128;22;47934;-91
2022/07/13 18:16:49;;;;;;;;;4.00;4.00;;;;;37.00;40.28;101439.78;6318489;22;45186;-93
2022/07/13 18:19:14;;;;;;;;;4.00;4.00;;;;;36.94;40.52;101443.75;6282880;22;45465;-90
2022/07/13 18:21:40;;;;;;;;;4.33;4.33;;;;;36.87;41.15;101447.75;6312921;22;45380;-91
2022/07/13 18:24:05;;;;;;;;;4.33;4.33;;;;;36.76;41.33;101442.88;6286758;22;47379;-91
2022/07/13 18:26:35;;;;;;;;;4.33;4.00;;;;;36.77;41.49;101458.34;6291446;22;45269;-91
2022/07/13 18:29:00;;;;;;;;;3.00;3.00;;;;;36.58;41.05;101462.09;6321020;22;45185;-95
2022/07/13 18:31:55;;;;;;;;;2.00;2.00;;;;;36.40;41.81;101455.75;6297202;22;45506;-96
2022/07/13 18:34:21;;;;;;;;;3.33;3.33;;;;;36.40;42.69;101485.81;6293128;22;47345;-95
2022/07/13 18:36:46;;;;;;;;;3.00;3.00;;;;;36.27;43.06;101475.53;6292664;22;45262;-95
2022/07/13 18:39:14;;;;;;;;;3.00;3.00;;;;;36.13;43.73;101484.47;6290256;22;45737;-92
2022/07/13 18:41:39;;;;;;;;;5.00;4.00;;;;;36.04;43.76;101496.75;6288230;22;45286;-95
2022/07/13 18:44:05;;;;;;;;;5.00;3.67;;;;;35.89;44.77;101499.31;6287380;22;48064;-96
2022/07/13 18:46:40;;;;;;;;;4.67;3.67;;;;;35.77;44.15;101508.94;6291993;22;45303;-94
2022/07/13 18:49:10;;;;;;;;;2.00;2.00;;;;;35.67;44.05;101516.72;6292764;22;45192;-96
2022/07/13 18:51:36;;;;;;;;;5.00;5.00;;;;;35.43;45.39;101495.16;6289047;22;44883;-95
2022/07/13 18:54:05;;;;;;;;;3.33;3.00;;;;;35.37;45.04;101500.00;6311712;22;46974;-96
2022/07/13 18:56:36;;;;;;;;;4.33;3.00;;;;;35.30;44.73;101513.94;6318995;22;45219;-95
2022/07/13 18:59:05;;;;;;;;;3.33;3.33;;;;;35.18;44.90;101512.66;6296255;22;45203;-96
2022/07/13 19:01:32;;;;;;;;;3.00;3.00;;;;;35.13;45.50;101527.50;6323353;22;44806;-94
2022/07/13 19:04:00;;;;;;;;;4.00;4.00;;;;;34.93;45.31;101521.13;6321343;22;46381;-95
2022/07/13 19:56:11;;;;;;;;;10.00;9.00;;;;;33.44;47.35;101602.53;6235029;22;46312;-93
2022/07/13 19:58:56;;;;;;;;;8.33;8.33;;;;;33.44;47.85;101616.16;6328521;22;45227;-95
2022/07/13 20:06:32;;;;;;;;;8.00;7.00;;;;;33.24;47.87;101619.63;6291290;22;46712;-96
2022/07/13 20:09:21;;;;;;;;;7.67;5.67;;;;;33.20;48.16;101624.25;6278403;22;45169;-92
2022/07/13 20:14:25;;;;;;;;;4.00;4.00;;;;;33.03;48.20;101621.25;6317994;22;45793;-92
